Time;durP1;ratioP1;P1;durP2;ratioP2;P2;SDS_P1;SDS_P2;PMS_P1;PMS_P2;Temp;Humidity;BMP_temperature;BMP_pressure;BME280_temperature;BME280_humidity;BME280_pressure;Samples;Min_cycle;Max_cycle;Signal;HPM_P1;HPM_P2
2023/10/22 00:01:24;;;;;;;0.60;0.60;;;18.60;53.30;;;;;;5106629;27;45370;-75
2023/10/22 00:03:52;;;;;;;1.33;0.73;;;18.60;53.30;;;;;;5107003;27;45282;-75
2023/10/22 00:06:18;;;;;;;0.60;0.60;;;18.60;53.30;;;;;;5106888;27;45409;-75
2023/10/22 00:08:45;;;;;;;0.57;0.57;;;18.60;53.40;;;;;;5123198;27;45565;-75
2023/10/22 00:11:12;;;;;;;0.40;0.40;;;18.60;53.40;;;;;;5127295;27;45204;-74
2023/10/22 00:13:40;;;;;;;0.77;0.43;;;18.60;53.40;;;;;;5127394;27;45345;-75
2023/10/22 00:16:07;;;;;;;1.33;0.68;;;18.60;53.40;;;;;;5127366;27;45564;-75
2023/10/22 00:18:34;;;;;;;0.60;0.60;;;18.60;53.40;;;;;;5127057;27;45263;-75
2023/10/22 00:21:01;;;;;;;0.70;0.57;;;18.60;53.40;;;;;;5126970;27;45321;-75
2023/10/22 00:23:28;;;;;;;0.57;0.57;;;18.60;53.40;;;;;;5127188;27;45305;-75
2023/10/22 00:25:55;;;;;;;0.63;0.60;;;18.60;53.50;;;;;;5127327;27;45414;-75
2023/10/22 00:28:22;;;;;;;1.63;0.77;;;18.60;53.40;;;;;;5126855;27;46508;-75
2023/10/22 00:30:50;;;;;;;0.93;0.50;;;18.60;53.40;;;;;;5126726;27;45337;-75
2023/10/22 00:33:17;;;;;;;1.00;0.68;;;18.60;53.40;;;;;;5126879;27;45376;-75
2023/10/22 00:35:44;;;;;;;0.73;0.35;;;18.60;53.40;;;;;;5122663;27;45250;-74
2023/10/22 00:38:10;;;;;;;0.45;0.45;;;18.60;53.50;;;;;;5106207;27;45506;-75
2023/10/22 00:40:37;;;;;;;0.80;0.60;;;18.60;53.40;;;;;;5106268;27;45351;-75
2023/10/22 00:43:07;;;;;;;1.70;0.55;;;18.60;53.50;;;;;;5106220;27;45366;-75
2023/10/22 00:45:36;;;;;;;0.73;0.70;;;18.60;53.40;;;;;;5106723;27;45158;-75
2023/10/22 00:48:05;;;;;;;2.38;0.75;;;18.60;53.40;;;;;;5106958;27;47582;-75
2023/10/22 00:50:32;;;;;;;1.42;0.50;;;18.60;53.50;;;;;;5106902;27;45284;-75
2023/10/22 00:52:58;;;;;;;0.93;0.60;;;18.60;53.50;;;;;;5107098;27;45342;-75
2023/10/22 00:55:25;;;;;;;1.00;0.65;;;18.60;53.50;;;;;;5107169;27;45362;-75
2023/10/22 00:57:52;;;;;;;0.65;0.65;;;18.50;53.40;;;;;;5106856;27;45370;-75
2023/10/22 01:00:20;;;;;;;0.50;0.50;;;18.50;53.40;;;;;;5106812;27;45424;-75
2023/10/22 01:02:47;;;;;;;0.60;0.60;;;18.50;53.40;;;;;;5106883;27;45270;-75
2023/10/22 01:05:15;;;;;;;0.73;0.40;;;18.50;53.40;;;;;;5106616;27;45403;-73
2023/10/22 01:07:42;;;;;;;0.35;0.30;;;18.50;53.40;;;;;;5113338;27;45459;-75
2023/10/22 01:10:10;;;;;;;0.52;0.43;;;18.50;53.50;;;;;;5127339;27;45441;-75
2023/10/22 01:12:38;;;;;;;0.63;0.50;;;18.50;53.50;;;;;;5127430;27;45402;-75
2023/10/22 01:15:06;;;;;;;0.68;0.68;;;18.50;53.40;;;;;;5127645;27;45260;-75
2023/10/22 01:17:33;;;;;;;0.73;0.52;;;18.50;53.50;;;;;;5127107;27;45471;-75
2023/10/22 01:19:59;;;;;;;0.60;0.60;;;18.50;53.50;;;;;;5127286;27;45298;-75
2023/10/22 01:22:27;;;;;;;0.50;0.50;;;18.50;53.50;;;;;;5127357;27;45257;-75
2023/10/22 01:24:56;;;;;;;0.63;0.60;;;18.50;53.50;;;;;;5127461;27;45302;-75
2023/10/22 01:27:23;;;;;;;0.68;0.50;;;18.50;53.50;;;;;;5126867;27;47660;-75
2023/10/22 01:29:49;;;;;;;0.55;0.55;;;18.50;53.60;;;;;;5127008;27;45382;-75
2023/10/22 01:32:16;;;;;;;1.65;0.82;;;18.50;53.50;;;;;;5127074;27;45292;-75
2023/10/22 01:34:43;;;;;;;0.82;0.60;;;18.50;53.60;;;;;;5127315;27;45426;-75
2023/10/22 01:37:10;;;;;;;0.50;0.50;;;18.50;53.50;;;;;;5110230;27;45565;-75
2023/10/22 01:39:37;;;;;;;1.10;0.52;;;18.50;53.60;;;;;;5106293;27;45319;-75
2023/10/22 01:42:05;;;;;;;0.30;0.30;;;18.50;53.70;;;;;;5106486;27;45406;-75
2023/10/22 01:44:32;;;;;;;0.52;0.50;;;18.50;53.50;;;;;;5110261;27;45378;-74
2023/10/22 01:46:59;;;;;;;0.75;0.50;;;18.50;53.60;;;;;;5109242;27;45351;-73
2023/10/22 01:49:26;;;;;;;1.75;0.40;;;18.50;53.50;;;;;;5109045;27;45352;-74
2023/10/22 01:51:53;;;;;;;0.50;0.45;;;18.50;53.60;;;;;;5109839;27;45323;-75
2023/10/22 01:54:20;;;;;;;0.50;0.50;;;18.50;54.20;;;;;;5110056;27;45386;-74
2023/10/22 01:56:47;;;;;;;0.65;0.40;;;18.50;53.60;;;;;;5109804;27;45471;-74
2023/10/22 01:59:15;;;;;;;0.70;0.70;;;18.50;53.60;;;;;;5109627;27;45214;-74
2023/10/22 02:01:42;;;;;;;0.63;0.38;;;18.50;53.60;;;;;;5109529;27;45471;-74
2023/10/22 02:04:09;;;;;;;1.23;0.75;;;18.40;53.60;;;;;;5109589;27;45224;-74
2023/10/22 02:06:36;;;;;;;0.50;0.50;;;18.40;53.60;;;;;;5109174;27;46199;-74
2023/10/22 02:09:03;;;;;;;0.40;0.40;;;18.40;53.70;;;;;;5128476;27;45388;-74
2023/10/22 02:11:30;;;;;;;0.63;0.40;;;18.40;53.70;;;;;;5130271;27;45290;-74
2023/10/22 02:13:58;;;;;;;0.60;0.60;;;18.40;53.70;;;;;;5130314;27;45312;-74
2023/10/22 02:16:26;;;;;;;0.73;0.60;;;18.40;53.60;;;;;;5129819;27;46514;-74
2023/10/22 02:18:53;;;;;;;0.60;0.60;;;18.40;53.60;;;;;;5129903;27;45240;-74
2023/10/22 02:21:25;;;;;;;0.65;0.60;;;18.40;53.60;;;;;;5130190;27;45159;-74
2023/10/22 02:23:52;;;;;;;0.52;0.52;;;18.40;53.70;;;;;;5130041;27;45251;-74
2023/10/22 02:26:19;;;;;;;0.45;0.45;;;18.40;53.70;;;;;;5129790;27;45957;-74
2023/10/22 02:28:46;;;;;;;0.73;0.65;;;18.40;53.70;;;;;;5129550;27;45336;-74
2023/10/22 02:31:13;;;;;;;2.13;0.80;;;18.40;53.70;;;;;;5129941;27;45389;-74
2023/10/22 02:33:41;;;;;;;1.00;0.50;;;18.40;53.80;;;;;;5129603;27;45361;-75
2023/10/22 02:36:09;;;;;;;0.70;0.45;;;18.30;53.70;;;;;;5120812;27;45331;-75
2023/10/22 02:38:36;;;;;;;1.58;0.70;;;18.30;53.70;;;;;;5108727;27;45376;-75
2023/10/22 02:41:03;;;;;;;0.40;0.40;;;18.30;53.70;;;;;;5108972;27;45453;-75
2023/10/22 02:43:30;;;;;;;0.50;0.50;;;18.30;53.70;;;;;;5109109;27;45358;-75
2023/10/22 02:45:57;;;;;;;0.60;0.60;;;18.30;53.70;;;;;;5108718;27;45239;-75
2023/10/22 02:48:24;;;;;;;0.60;0.60;;;18.30;53.70;;;;;;5108865;27;45270;-75
2023/10/22 02:50:52;;;;;;;0.65;0.65;;;18.30;53.70;;;;;;5108996;27;45238;-75
2023/10/22 02:53:19;;;;;;;0.45;0.45;;;18.30;53.80;;;;;;5108854;27;45403;-75
2023/10/22 02:55:47;;;;;;;0.30;0.30;;;18.30;53.80;;;;;;5108817;27;45346;-75
2023/10/22 02:58:14;;;;;;;0.50;0.50;;;18.30;53.70;;;;;;5108718;27;45334;-74
2023/10/22 03:00:41;;;;;;;0.40;0.40;;;18.30;53.80;;;;;;5108766;27;45359;-75
2023/10/22 03:03:08;;;;;;;0.43;0.43;;;18.20;53.80;;;;;;5109078;27;45373;-75
2023/10/22 03:05:36;;;;;;;0.75;0.60;;;18.30;53.80;;;;;;5108749;27;45323;-75
2023/10/22 03:08:04;;;;;;;0.40;0.40;;;18.30;53.80;;;;;;5118987;27;45310;-75
2023/10/22 03:10:31;;;;;;;0.20;0.20;;;18.20;53.70;;;;;;5129216;27;45263;-75
2023/10/22 03:12:59;;;;;;;0.50;0.50;;;18.20;53.80;;;;;;5129302;27;45325;-75
2023/10/22 03:15:27;;;;;;;0.57;0.45;;;18.20;53.70;;;;;;5129045;27;45406;-74
2023/10/22 03:17:56;;;;;;;1.83;0.60;;;18.20;53.80;;;;;;5128954;27;45270;-74
2023/10/22 03:20:23;;;;;;;0.43;0.32;;;18.20;53.80;;;;;;5129148;27;45270;-74
2023/10/22 03:22:50;;;;;;;0.50;0.45;;;18.20;53.80;;;;;;5128421;27;45614;-75
2023/10/22 03:25:18;;;;;;;0.47;0.43;;;18.20;53.80;;;;;;5128690;27;45343;-74
2023/10/22 03:27:45;;;;;;;0.50;0.50;;;18.20;53.90;;;;;;5126134;27;45294;-75
2023/10/22 03:30:13;;;;;;;0.25;0.25;;;18.20;54.40;;;;;;5129092;27;45319;-75
2023/10/22 03:32:40;;;;;;;1.00;0.50;;;18.20;53.80;;;;;;5128933;27;45562;-75
2023/10/22 03:35:08;;;;;;;0.22;0.22;;;18.10;53.80;;;;;;5128724;27;46493;-75
2023/10/22 03:37:35;;;;;;;0.93;0.50;;;18.10;53.80;;;;;;5108504;27;45258;-75
2023/10/22 03:40:02;;;;;;;0.63;0.43;;;18.10;53.80;;;;;;5108183;27;45346;-74
2023/10/22 03:42:30;;;;;;;0.40;0.40;;;18.10;53.80;;;;;;5108106;27;45363;-75
2023/10/22 03:44:57;;;;;;;0.30;0.30;;;18.10;53.80;;;;;;5107800;27;45319;-75
2023/10/22 03:47:23;;;;;;;0.70;0.40;;;18.10;53.80;;;;;;5108196;27;45248;-74
2023/10/22 03:49:50;;;;;;;0.32;0.32;;;18.10;53.80;;;;;;5107913;27;45276;-75
2023/10/22 03:52:17;;;;;;;0.30;0.30;;;18.10;53.80;;;;;;5108081;27;45500;-74
2023/10/22 03:54:44;;;;;;;1.08;0.60;;;18.10;53.80;;;;;;5107705;27;45362;-74
2023/10/22 03:57:11;;;;;;;0.38;0.30;;;18.10;53.80;;;;;;5107671;27;45405;-74
2023/10/22 03:59:39;;;;;;;0.30;0.30;;;18.10;53.80;;;;;;5107831;27;45326;-75
2023/10/22 04:02:06;;;;;;;0.30;0.30;;;18.10;53.80;;;;;;5108052;27;45125;-76
2023/10/22 04:04:32;;;;;;;0.30;0.30;;;18.10;53.80;;;;;;5107170;27;46380;-75
2023/10/22 04:06:59;;;;;;;0.40;0.40;;;18.10;53.80;;;;;;5107824;27;45349;-76
2023/10/22 04:09:26;;;;;;;0.80;0.40;;;18.10;53.80;;;;;;5128358;27;45384;-76
2023/10/22 04:11:53;;;;;;;0.95;0.40;;;18.10;53.90;;;;;;5128401;27;45248;-76
2023/10/22 04:14:20;;;;;;;0.38;0.38;;;18.00;53.80;;;;;;5128380;27;46748;-75
2023/10/22 04:16:50;;;;;;;1.33;0.50;;;18.00;54.40;;;;;;5127946;27;45405;-76
2023/10/22 04:19:17;;;;;;;0.30;0.30;;;18.00;53.80;;;;;;5128384;27;45323;-75
2023/10/22 04:21:43;;;;;;;0.80;0.30;;;18.00;53.80;;;;;;5128374;27;45305;-76
2023/10/22 04:24:10;;;;;;;0.45;0.45;;;18.00;53.80;;;;;;5127836;27;46666;-75
2023/10/22 04:26:37;;;;;;;0.60;0.40;;;18.00;53.80;;;;;;5127935;27;45486;-76
2023/10/22 04:29:04;;;;;;;0.73;0.40;;;18.00;54.40;;;;;;5127952;27;45230;-75
2023/10/22 04:31:31;;;;;;;0.32;0.32;;;18.00;53.90;;;;;;5128238;27;45480;-76
2023/10/22 04:33:59;;;;;;;0.38;0.32;;;18.00;53.90;;;;;;5127478;27;46329;-76
2023/10/22 04:36:26;;;;;;;2.53;0.50;;;18.00;53.90;;;;;;5117350;27;45374;-76
2023/10/22 04:38:53;;;;;;;0.20;0.20;;;18.00;53.90;;;;;;5107237;27;45252;-76
2023/10/22 04:41:20;;;;;;;0.40;0.40;;;18.00;53.90;;;;;;5107594;27;45556;-76
2023/10/22 04:43:47;;;;;;;0.20;0.20;;;18.00;53.90;;;;;;5104308;27;45264;-76
2023/10/22 04:46:14;;;;;;;0.60;0.35;;;18.00;53.90;;;;;;5106912;27;46256;-75
2023/10/22 04:48:41;;;;;;;0.40;0.40;;;17.90;53.80;;;;;;5106486;27;45312;-75
2023/10/22 04:51:11;;;;;;;1.02;0.50;;;17.90;53.90;;;;;;5107041;27;45348;-76
2023/10/22 04:53:37;;;;;;;3.63;0.40;;;17.90;53.80;;;;;;5106769;27;48349;-76
2023/10/22 04:56:06;;;;;;;0.43;0.43;;;17.90;53.90;;;;;;5106855;27;45288;-76
2023/10/22 04:58:33;;;;;;;1.20;0.40;;;17.90;53.90;;;;;;5107033;27;45405;-76
2023/10/22 05:00:59;;;;;;;1.08;0.38;;;17.90;53.90;;;;;;5107163;27;45361;-75
2023/10/22 05:03:26;;;;;;;0.47;0.40;;;17.90;53.80;;;;;;5106668;27;46566;-76
2023/10/22 05:05:54;;;;;;;0.68;0.30;;;17.90;53.90;;;;;;5106656;27;45383;-75
2023/10/22 05:08:23;;;;;;;1.17;0.43;;;17.90;53.90;;;;;;5120083;27;45416;-76
2023/10/22 05:10:50;;;;;;;1.15;0.52;;;17.90;53.90;;;;;;5127589;27;45507;-76
2023/10/22 05:13:17;;;;;;;0.45;0.30;;;17.80;53.80;;;;;;5124570;27;45299;-76
2023/10/22 05:15:51;;;;;;;0.43;0.40;;;17.80;53.90;;;;;;5127443;27;45291;-75
2023/10/22 05:18:18;;;;;;;0.20;0.20;;;17.80;53.90;;;;;;5129538;27;45297;-76
2023/10/22 05:20:44;;;;;;;1.05;0.40;;;17.80;53.80;;;;;;5131302;27;45228;-75
2023/10/22 05:23:11;;;;;;;0.40;0.40;;;17.80;53.90;;;;;;5130770;27;46392;-76
2023/10/22 05:25:39;;;;;;;0.93;0.50;;;17.80;53.80;;;;;;5130775;27;45414;-76
2023/10/22 05:28:06;;;;;;;2.33;0.63;;;17.80;53.90;;;;;;5131059;27;45330;-76
2023/10/22 05:30:33;;;;;;;0.25;0.25;;;17.80;53.90;;;;;;5131063;27;45326;-76
2023/10/22 05:33:01;;;;;;;0.50;0.35;;;17.80;53.90;;;;;;5130453;27;47532;-75
2023/10/22 05:35:27;;;;;;;0.70;0.35;;;17.80;53.90;;;;;;5127666;27;45349;-76
2023/10/22 05:37:54;;;;;;;0.70;0.32;;;17.80;53.90;;;;;;5110083;27;45427;-76
2023/10/22 05:40:21;;;;;;;0.57;0.50;;;17.80;53.90;;;;;;5110155;27;45305;-75
2023/10/22 05:42:49;;;;;;;1.75;0.70;;;17.80;53.90;;;;;;5109732;27;45361;-75
2023/10/22 05:45:16;;;;;;;1.20;0.50;;;17.80;53.90;;;;;;5109898;27;45267;-75
2023/10/22 05:47:43;;;;;;;0.47;0.40;;;17.70;53.80;;;;;;5109929;27;45340;-76
2023/10/22 05:50:11;;;;;;;0.65;0.50;;;17.70;53.90;;;;;;5110344;27;45331;-76
2023/10/22 05:52:38;;;;;;;0.70;0.55;;;17.70;53.90;;;;;;5109228;27;46396;-76
2023/10/22 05:55:06;;;;;;;0.45;0.30;;;17.70;53.80;;;;;;5109577;27;45279;-76
2023/10/22 05:57:32;;;;;;;1.23;0.55;;;17.70;53.80;;;;;;5109923;27;45501;-76
2023/10/22 06:00:01;;;;;;;0.40;0.40;;;17.70;53.90;;;;;;5107511;27;45381;-76
2023/10/22 06:02:27;;;;;;;0.95;0.40;;;17.70;53.90;;;;;;5109489;27;46370;-74
2023/10/22 06:04:54;;;;;;;0.35;0.35;;;17.70;53.90;;;;;;5109319;27;45280;-77
2023/10/22 06:07:22;;;;;;;0.47;0.38;;;17.70;53.90;;;;;;5111679;27;45338;-74
2023/10/22 06:09:48;;;;;;;0.50;0.50;;;17.70;53.90;;;;;;5130707;27;45232;-74
2023/10/22 06:12:15;;;;;;;0.25;0.25;;;17.70;53.90;;;;;;5130017;27;45487;-76
2023/10/22 06:14:42;;;;;;;0.80;0.32;;;17.70;53.90;;;;;;5129823;27;45305;-76
2023/10/22 06:17:10;;;;;;;0.30;0.30;;;17.60;53.90;;;;;;5130225;27;45322;-75
2023/10/22 06:19:37;;;;;;;1.00;0.30;;;17.70;53.90;;;;;;5129706;27;45533;-75
2023/10/22 06:22:04;;;;;;;0.80;0.30;;;17.70;53.90;;;;;;5129791;27;45336;-74
2023/10/22 06:24:31;;;;;;;0.98;0.35;;;17.60;53.80;;;;;;5129885;27;45427;-76
2023/10/22 06:26:58;;;;;;;1.38;0.30;;;17.60;53.80;;;;;;5129828;27;45315;-76
2023/10/22 06:29:25;;;;;;;0.40;0.40;;;17.60;53.90;;;;;;5129898;27;45317;-77
2023/10/22 06:31:52;;;;;;;0.73;0.32;;;17.60;53.90;;;;;;5129955;27;46807;-76
2023/10/22 06:34:21;;;;;;;0.28;0.28;;;17.60;53.80;;;;;;5129400;27;45499;-76
2023/10/22 06:36:47;;;;;;;0.30;0.30;;;17.60;53.80;;;;;;5116306;27;45329;-76
2023/10/22 06:39:15;;;;;;;0.40;0.40;;;17.60;53.90;;;;;;5109322;27;45436;-76
2023/10/22 06:41:42;;;;;;;1.35;0.40;;;17.60;53.80;;;;;;5108987;27;45625;-75
2023/10/22 06:44:09;;;;;;;0.95;0.50;;;17.60;53.80;;;;;;5109141;27;45300;-76
2023/10/22 06:46:36;;;;;;;0.45;0.45;;;17.60;54.40;;;;;;5108985;27;45150;-75
2023/10/22 06:49:03;;;;;;;0.38;0.20;;;17.60;53.80;;;;;;5109073;27;45357;-75
2023/10/22 06:51:31;;;;;;;0.30;0.30;;;17.60;53.90;;;;;;5108749;27;45443;-76
2023/10/22 06:53:58;;;;;;;0.30;0.30;;;17.60;53.80;;;;;;5108823;27;45440;-76
2023/10/22 06:56:25;;;;;;;1.23;0.50;;;17.60;53.80;;;;;;5108800;27;45373;-76
2023/10/22 06:58:52;;;;;;;0.50;0.50;;;17.60;53.80;;;;;;5108954;27;45525;-76
2023/10/22 07:01:19;;;;;;;0.43;0.38;;;17.60;53.80;;;;;;5108555;27;45479;-74
2023/10/22 07:03:46;;;;;;;0.40;0.20;;;17.60;53.80;;;;;;5108027;27;45334;-75
2023/10/22 07:06:13;;;;;;;0.32;0.32;;;17.60;53.80;;;;;;5108698;27;45319;-76
2023/10/22 07:08:41;;;;;;;0.90;0.20;;;17.60;54.40;;;;;;5124894;27;45287;-76
2023/10/22 07:11:08;;;;;;;0.20;0.20;;;17.60;53.80;;;;;;5129522;27;45252;-76
2023/10/22 07:13:35;;;;;;;0.30;0.30;;;17.60;53.80;;;;;;5130434;27;45271;-76
2023/10/22 07:16:02;;;;;;;0.57;0.30;;;17.60;53.70;;;;;;5129603;27;45301;-76
2023/10/22 07:18:29;;;;;;;1.25;0.40;;;17.60;53.70;;;;;;5128129;27;45275;-76
2023/10/22 07:20:56;;;;;;;0.95;0.40;;;17.60;53.70;;;;;;5129368;27;45439;-76
2023/10/22 07:23:22;;;;;;;0.88;0.40;;;17.60;53.60;;;;;;5129186;27;45265;-76
2023/10/22 07:25:55;;;;;;;0.20;0.20;;;17.60;53.60;;;;;;5129457;27;45351;-75
2023/10/22 07:28:22;;;;;;;0.30;0.30;;;17.70;53.70;;;;;;5129887;27;45357;-76
2023/10/22 07:30:49;;;;;;;0.32;0.30;;;17.60;53.70;;;;;;5128989;27;47087;-75
2023/10/22 07:33:16;;;;;;;0.70;0.60;;;17.70;53.70;;;;;;5128371;27;45247;-76
2023/10/22 07:35:52;;;;;;;0.47;0.32;;;17.70;53.60;;;;;;5124475;27;45325;-76
2023/10/22 07:38:19;;;;;;;0.20;0.20;;;17.70;53.60;;;;;;5108522;27;45280;-76
2023/10/22 07:40:47;;;;;;;0.30;0.30;;;17.70;53.60;;;;;;5107047;27;45439;-76
2023/10/22 07:43:15;;;;;;;0.45;0.40;;;17.70;53.60;;;;;;5108073;27;45340;-76
2023/10/22 07:45:42;;;;;;;0.35;0.35;;;17.70;53.60;;;;;;5108210;27;45287;-76
2023/10/22 07:48:09;;;;;;;1.38;0.40;;;17.70;53.60;;;;;;5108350;27;45301;-75
2023/10/22 07:50:36;;;;;;;0.47;0.30;;;17.70;53.60;;;;;;5107459;27;46466;-76
2023/10/22 07:53:02;;;;;;;0.30;0.20;;;17.70;53.60;;;;;;5107642;27;45230;-75
2023/10/22 07:55:29;;;;;;;0.30;0.20;;;17.70;53.60;;;;;;5108098;27;45330;-75
2023/10/22 07:57:56;;;;;;;0.30;0.30;;;17.70;53.60;;;;;;5108227;27;45172;-75
2023/10/22 08:00:25;;;;;;;1.02;0.60;;;17.70;53.60;;;;;;5107951;27;46454;-76
2023/10/22 08:02:52;;;;;;;0.20;0.20;;;17.70;53.60;;;;;;5107903;27;45418;-77
2023/10/22 08:05:19;;;;;;;0.38;0.38;;;17.70;53.60;;;;;;5107844;27;45319;-76
2023/10/22 08:07:46;;;;;;;1.10;0.40;;;17.70;53.60;;;;;;5116321;27;45295;-76
2023/10/22 08:10:13;;;;;;;0.20;0.20;;;17.70;53.50;;;;;;5128463;27;46464;-76
2023/10/22 08:12:40;;;;;;;0.60;0.50;;;17.70;53.50;;;;;;5128710;27;45360;-76
2023/10/22 08:15:08;;;;;;;0.80;0.30;;;17.80;53.50;;;;;;5128495;27;45388;-76
2023/10/22 08:17:36;;;;;;;0.28;0.28;;;17.80;53.60;;;;;;5128447;27;45164;-76
2023/10/22 08:20:04;;;;;;;0.40;0.40;;;17.80;53.50;;;;;;5128378;27;46755;-75
2023/10/22 08:22:30;;;;;;;0.30;0.30;;;17.80;53.50;;;;;;5128015;27;45317;-75
2023/10/22 08:24:57;;;;;;;1.58;0.50;;;17.80;53.50;;;;;;5128053;27;45383;-76
2023/10/22 08:27:24;;;;;;;0.40;0.40;;;17.80;53.50;;;;;;5128291;27;45497;-75
2023/10/22 08:29:51;;;;;;;0.50;0.50;;;17.80;53.50;;;;;;5128051;27;45523;-74
2023/10/22 08:32:18;;;;;;;1.08;0.50;;;17.80;53.40;;;;;;5126868;27;45352;-74
2023/10/22 08:34:46;;;;;;;0.52;0.32;;;17.80;53.50;;;;;;5127881;27;45377;-74
2023/10/22 08:37:13;;;;;;;0.55;0.30;;;17.80;53.40;;;;;;5112241;27;45272;-74
2023/10/22 08:39:40;;;;;;;2.13;0.30;;;17.80;53.40;;;;;;5108781;27;46698;-76
2023/10/22 08:42:09;;;;;;;0.40;0.40;;;17.80;53.40;;;;;;5108580;27;45252;-74
2023/10/22 08:44:38;;;;;;;0.40;0.30;;;17.90;53.50;;;;;;5107146;27;45342;-75
2023/10/22 08:47:05;;;;;;;1.48;0.30;;;17.90;53.40;;;;;;5107931;27;45275;-74
2023/10/22 08:49:32;;;;;;;0.30;0.30;;;17.90;53.40;;;;;;5108146;27;45295;-74
2023/10/22 08:52:00;;;;;;;0.43;0.38;;;17.90;53.40;;;;;;5108850;27;45368;-74
2023/10/22 08:54:27;;;;;;;0.88;0.50;;;17.90;53.40;;;;;;5112419;27;45320;-75
2023/10/22 08:56:54;;;;;;;0.43;0.30;;;17.90;53.40;;;;;;5111994;27;45473;-74
2023/10/22 08:59:21;;;;;;;0.30;0.30;;;18.00;53.30;;;;;;5110952;27;45301;-74
2023/10/22 09:01:47;;;;;;;0.40;0.30;;;18.00;53.30;;;;;;5111083;27;45328;-74
2023/10/22 09:04:14;;;;;;;0.30;0.30;;;18.00;53.30;;;;;;5111279;27;45371;-73
2023/10/22 09:06:41;;;;;;;0.50;0.40;;;18.00;53.20;;;;;;5111316;27;45367;-73
2023/10/22 09:09:10;;;;;;;0.20;0.20;;;18.00;53.20;;;;;;5130634;27;46657;-74
2023/10/22 09:11:37;;;;;;;0.57;0.50;;;18.00;53.20;;;;;;5131520;27;45179;-74
2023/10/22 09:14:17;;;;;;;1.20;0.40;;;18.10;53.20;;;;;;5123253;27;45196;-71
2023/10/22 09:16:44;;;;;;;0.68;0.40;;;18.10;53.20;;;;;;5110595;27;45489;-72
2023/10/22 09:19:10;;;;;;;2.10;0.50;;;18.10;53.40;;;;;;5111758;27;45346;-70
2023/10/22 09:21:43;;;;;;;3.22;1.02;;;18.10;52.90;;;;;;5121989;27;45416;-69
2023/10/22 09:24:12;;;;;;;1.73;0.68;;;18.10;52.70;;;;;;5111453;27;45403;-70
2023/10/22 09:26:43;;;;;;;1.02;0.50;;;18.10;53.00;;;;;;5110812;27;45332;-69
2023/10/22 09:29:10;;;;;;;0.40;0.40;;;18.20;53.00;;;;;;5114853;27;46355;-71
2023/10/22 09:31:37;;;;;;;0.82;0.60;;;18.20;52.80;;;;;;5112228;27;45318;-71
2023/10/22 09:34:04;;;;;;;2.40;0.45;;;18.20;52.80;;;;;;5110235;27;45477;-71
2023/10/22 09:36:30;;;;;;;0.82;0.55;;;18.20;53.20;;;;;;5114819;27;45503;-71
2023/10/22 09:38:57;;;;;;;1.05;0.50;;;18.30;52.70;;;;;;5110086;27;46282;-71
2023/10/22 09:41:29;;;;;;;3.30;0.60;;;18.30;53.00;;;;;;5110080;27;45431;-71
2023/10/22 09:43:57;;;;;;;2.60;0.63;;;18.30;53.00;;;;;;5118298;27;45332;-71
2023/10/22 09:46:24;;;;;;;1.67;0.47;;;18.40;52.80;;;;;;5110369;27;45418;-72
2023/10/22 09:48:51;;;;;;;2.45;0.50;;;18.40;52.70;;;;;;5115469;27;47320;-72
2023/10/22 09:51:18;;;;;;;1.10;0.60;;;18.40;52.80;;;;;;5109538;27;45218;-70
2023/10/22 09:53:47;;;;;;;1.48;0.57;;;18.50;53.00;;;;;;5111203;27;46399;-72
2023/10/22 09:56:14;;;;;;;0.40;0.40;;;18.50;53.10;;;;;;5109811;27;45555;-71
2023/10/22 09:58:45;;;;;;;0.47;0.32;;;18.50;52.70;;;;;;5109480;27;45469;-69
2023/10/22 10:01:12;;;;;;;0.80;0.43;;;18.50;52.40;;;;;;5109553;27;45361;-70
2023/10/22 10:03:39;;;;;;;2.28;0.63;;;18.60;52.40;;;;;;5110630;27;45404;-71
2023/10/22 10:06:07;;;;;;;1.27;0.52;;;18.60;52.20;;;;;;5113934;27;45534;-69
2023/10/22 10:08:36;;;;;;;1.05;0.50;;;18.70;52.40;;;;;;5117410;27;47325;-69
2023/10/22 10:11:03;;;;;;;2.25;0.70;;;18.70;52.50;;;;;;5118638;27;45560;-71
2023/10/22 10:13:30;;;;;;;4.10;0.70;;;18.80;52.30;;;;;;5109635;27;45399;-70
2023/10/22 10:16:01;;;;;;;1.70;0.50;;;18.90;52.30;;;;;;5117197;27;45392;-70
2023/10/22 10:19:02;;;;;;;0.75;0.55;;;18.90;52.20;;;;;;5110482;27;46296;-70
2023/10/22 10:21:45;;;;;;;1.13;0.45;;;19.00;52.00;;;;;;5107553;27;45303;-69
2023/10/22 10:24:23;;;;;;;2.58;0.70;;;19.00;51.80;;;;;;5108856;27;45479;-70
2023/10/22 10:26:51;;;;;;;1.80;0.75;;;19.10;51.40;;;;;;5109725;27;45502;-70
2023/10/22 10:29:18;;;;;;;1.17;0.60;;;19.20;51.40;;;;;;5123063;27;46284;-70
2023/10/22 10:31:47;;;;;;;0.65;0.60;;;19.20;51.40;;;;;;5107835;27;45476;-69
2023/10/22 10:34:27;;;;;;;1.48;0.60;;;19.20;51.40;;;;;;5108403;27;45287;-70
2023/10/22 10:36:53;;;;;;;1.90;0.50;;;19.30;51.40;;;;;;5111548;27;46396;-71
2023/10/22 10:39:39;;;;;;;0.70;0.52;;;19.40;51.30;;;;;;5109246;27;46369;-69
2023/10/22 10:42:06;;;;;;;0.88;0.60;;;19.50;51.30;;;;;;5108052;27;45385;-71
2023/10/22 10:44:33;;;;;;;3.08;1.20;;;19.50;51.10;;;;;;5109220;27;45427;-71
2023/10/22 10:47:32;;;;;;;1.50;0.57;;;19.60;50.90;;;;;;5112151;27;45493;-71
2023/10/22 10:50:02;;;;;;;1.02;0.47;;;19.70;50.80;;;;;;5128877;27;46311;-71
2023/10/22 10:52:29;;;;;;;2.40;0.45;;;19.70;50.60;;;;;;5129058;27;45278;-70
2023/10/22 10:55:00;;;;;;;2.05;0.40;;;19.80;50.60;;;;;;5129446;27;45376;-70
2023/10/22 10:57:36;;;;;;;0.68;0.52;;;19.90;50.50;;;;;;5129928;27;45394;-70
2023/10/22 11:00:04;;;;;;;2.08;0.63;;;20.00;50.30;;;;;;5129146;27;47846;-70
2023/10/22 11:02:31;;;;;;;0.95;0.50;;;20.10;50.30;;;;;;5129334;27;45349;-70
2023/10/22 11:05:00;;;;;;;0.45;0.45;;;20.10;50.20;;;;;;5129346;27;45407;-70
2023/10/22 11:07:26;;;;;;;1.30;0.50;;;20.20;50.00;;;;;;5124292;27;45309;-71
2023/10/22 11:09:53;;;;;;;0.60;0.60;;;20.30;50.00;;;;;;5111302;27;46652;-70
2023/10/22 11:12:21;;;;;;;2.30;0.52;;;20.30;49.90;;;;;;5122802;27;45440;-70
2023/10/22 11:14:53;;;;;;;1.48;0.60;;;20.40;49.90;;;;;;5116598;27;45382;-71
2023/10/22 11:17:21;;;;;;;5.28;0.73;;;20.50;49.70;;;;;;5124945;27;45547;-71
2023/10/22 11:19:50;;;;;;;1.23;0.40;;;20.50;49.60;;;;;;5117127;27;45475;-71
2023/10/22 11:22:19;;;;;;;0.60;0.50;;;20.60;49.60;;;;;;5122230;27;46153;-71
2023/10/22 11:24:46;;;;;;;1.17;0.50;;;20.60;49.50;;;;;;5127371;27;45439;-70
2023/10/22 11:27:13;;;;;;;0.52;0.32;;;20.70;49.50;;;;;;5126516;27;45860;-71
2023/10/22 11:29:40;;;;;;;1.38;0.80;;;20.70;49.10;;;;;;5128298;27;46660;-71
2023/10/22 11:32:11;;;;;;;0.60;0.40;;;20.70;49.20;;;;;;5120043;27;45563;-71
2023/10/22 11:34:46;;;;;;;1.85;0.65;;;20.80;49.40;;;;;;5070123;28;45360;-71
2023/10/22 11:37:13;;;;;;;0.70;0.63;;;20.90;49.20;;;;;;5069545;28;45581;-71
2023/10/22 11:39:42;;;;;;;0.50;0.50;;;20.90;49.10;;;;;;5072502;28;45542;-71
2023/10/22 11:42:10;;;;;;;1.00;0.60;;;21.00;49.20;;;;;;5070950;28;45776;-71
2023/10/22 11:44:38;;;;;;;0.95;0.68;;;21.00;48.70;;;;;;5067590;27;45359;-70
2023/10/22 11:47:24;;;;;;;0.77;0.40;;;21.10;49.20;;;;;;5072186;28;45320;-71
2023/10/22 11:49:51;;;;;;;1.23;0.40;;;21.10;48.80;;;;;;5069657;28;46826;-70
2023/10/22 11:52:19;;;;;;;1.88;0.60;;;21.20;48.80;;;;;;5070821;27;45414;-71
2023/10/22 11:54:48;;;;;;;1.35;0.60;;;21.30;49.10;;;;;;5070959;28;45698;-70
2023/10/22 11:57:15;;;;;;;1.98;0.60;;;21.30;48.40;;;;;;5073399;28;45733;-71
2023/10/22 11:59:41;;;;;;;1.13;0.50;;;21.40;48.70;;;;;;5068788;28;46605;-70
2023/10/22 12:02:08;;;;;;;1.48;0.45;;;21.40;48.60;;;;;;5072739;28;45456;-71
2023/10/22 12:04:35;;;;;;;2.03;0.45;;;21.50;48.50;;;;;;5071707;28;45604;-71
2023/10/22 12:07:02;;;;;;;0.52;0.50;;;21.50;48.30;;;;;;5071252;27;45885;-71
2023/10/22 12:09:29;;;;;;;0.50;0.40;;;21.50;48.30;;;;;;5067101;28;46347;-70
2023/10/22 12:11:57;;;;;;;1.30;0.40;;;21.50;48.10;;;;;;5067966;28;45336;-74
2023/10/22 12:14:24;;;;;;;0.68;0.47;;;21.50;48.40;;;;;;5068322;28;45280;-73
2023/10/22 12:16:51;;;;;;;2.53;0.50;;;21.60;48.50;;;;;;5071018;28;46339;-73
2023/10/22 12:19:18;;;;;;;0.30;0.30;;;21.60;48.20;;;;;;5069455;28;45383;-74
2023/10/22 12:21:45;;;;;;;0.85;0.40;;;21.70;48.40;;;;;;5069105;28;45919;-73
2023/10/22 12:24:11;;;;;;;1.83;0.50;;;21.80;48.30;;;;;;5067895;28;45466;-74
2023/10/22 12:26:38;;;;;;;1.52;0.60;;;21.80;48.20;;;;;;5070281;27;45630;-73
2023/10/22 12:29:07;;;;;;;0.52;0.40;;;21.90;48.10;;;;;;5068402;27;46780;-73
2023/10/22 12:31:33;;;;;;;1.13;0.30;;;22.00;48.00;;;;;;5068439;28;45505;-71
2023/10/22 12:34:00;;;;;;;0.47;0.40;;;22.00;48.10;;;;;;5096624;27;45379;-73
2023/10/22 12:36:27;;;;;;;1.80;0.45;;;21.90;48.20;;;;;;5106380;27;45326;-74
2023/10/22 12:38:54;;;;;;;0.93;0.55;;;22.00;48.20;;;;;;5112532;27;45452;-69
2023/10/22 12:41:21;;;;;;;0.52;0.40;;;22.00;48.20;;;;;;5112214;27;45329;-76
2023/10/22 12:43:48;;;;;;;1.48;0.68;;;22.10;48.20;;;;;;5114649;27;45468;-75
2023/10/22 12:46:17;;;;;;;2.55;0.70;;;22.10;47.90;;;;;;5112227;27;45421;-75
2023/10/22 12:48:44;;;;;;;1.27;0.50;;;22.20;47.60;;;;;;5111235;27;46681;-74
2023/10/22 12:51:11;;;;;;;1.58;0.40;;;22.20;48.00;;;;;;5109478;27;45407;-74